createdAt,value
2023-03-28T00:01:08.235Z,4.82
2023-03-28T00:03:39.780Z,6.32
2023-03-28T00:06:16.511Z,6.07
2023-03-28T00:08:46.156Z,5.22
2023-03-28T00:11:20.444Z,5.68
2023-03-28T00:14:00.975Z,5.80
2023-03-28T00:16:47.470Z,5.82
2023-03-28T00:19:18.857Z,6.78
2023-03-28T00:21:49.207Z,5.55
2023-03-28T00:24:21.512Z,5.53
2023-03-28T00:26:54.493Z,7.72
2023-03-28T00:29:23.279Z,10.02
2023-03-28T00:31:52.211Z,6.10
2023-03-28T00:34:19.487Z,5.38
2023-03-28T00:36:47.188Z,8.05
2023-03-28T00:39:14.498Z,6.32
2023-03-28T00:41:44.489Z,6.07
2023-03-28T00:44:41.846Z,7.75
2023-03-28T00:47:28.091Z,5.35
2023-03-28T00:50:00.729Z,6.57
2023-03-28T00:52:31.044Z,6.95
2023-03-28T00:54:59.671Z,5.65
2023-03-28T00:57:28.751Z,5.60
2023-03-28T00:59:56.229Z,6.20
2023-03-28T01:02:24.181Z,3.65
2023-03-28T01:04:59.528Z,7.90
2023-03-28T01:07:33.302Z,6.15
2023-03-28T01:10:04.314Z,8.13
2023-03-28T01:12:33.350Z,7.03
2023-03-28T01:15:03.197Z,5.25
2023-03-28T01:17:41.524Z,5.38
2023-03-28T01:21:07.729Z,8.75
2023-03-28T01:23:53.446Z,4.40
2023-03-28T01:26:45.881Z,9.00
2023-03-28T01:29:19.784Z,7.13
2023-03-28T01:32:22.493Z,6.38
2023-03-28T01:35:03.577Z,8.35
2023-03-28T01:37:45.949Z,6.15
2023-03-28T01:40:35.777Z,8.45
2023-03-28T01:43:23.595Z,6.82
2023-03-28T01:46:18.827Z,7.05
2023-03-28T01:48:54.144Z,7.78
2023-03-28T01:51:25.037Z,6.65
2023-03-28T01:54:06.624Z,7.50
2023-03-28T01:56:49.282Z,5.95
2023-03-28T01:59:30.604Z,8.88
2023-03-28T02:02:33.105Z,9.55
2023-03-28T02:05:15.550Z,9.40
2023-03-28T02:07:46.423Z,7.30
2023-03-28T02:10:17.348Z,8.30
2023-03-28T02:13:23.002Z,5.85
2023-03-28T02:15:59.099Z,5.90
2023-03-28T02:18:55.760Z,6.22
2023-03-28T02:22:01.061Z,7.18
2023-03-28T02:24:31.724Z,6.40
2023-03-28T02:27:28.449Z,6.30
2023-03-28T02:30:09.971Z,5.38
2023-03-28T02:32:38.810Z,5.65
2023-03-28T02:35:07.573Z,4.13
2023-03-28T02:37:51.206Z,5.53
2023-03-28T02:40:46.645Z,4.15
2023-03-28T02:43:35.595Z,2.78
2023-03-28T02:46:06.233Z,3.75
2023-03-28T02:48:42.656Z,3.47
2023-03-28T02:51:49.023Z,4.85
2023-03-28T02:54:54.828Z,2.78
2023-03-28T02:57:42.964Z,1.58
2023-03-28T03:00:16.014Z,1.58
2023-03-28T03:02:45.139Z,3.00
2023-03-28T03:05:13.975Z,1.33
2023-03-28T03:07:42.451Z,0.85
2023-03-28T03:10:12.044Z,1.10
2023-03-28T03:12:39.992Z,0.85
2023-03-28T03:15:08.002Z,1.65
2023-03-28T03:17:55.900Z,0.77
2023-03-28T03:20:34.801Z,2.22
2023-03-28T03:23:03.951Z,2.30
2023-03-28T03:25:34.631Z,4.00
2023-03-28T03:28:28.344Z,1.45
2023-03-28T03:30:55.938Z,1.30
2023-03-28T03:33:41.704Z,0.55
2023-03-28T03:36:12.846Z,1.42
2023-03-28T03:38:42.022Z,0.68
2023-03-28T03:41:16.556Z,1.17
2023-03-28T03:43:45.290Z,1.00
2023-03-28T03:46:14.513Z,1.17
2023-03-28T03:48:49.472Z,1.05
2023-03-28T03:51:17.940Z,0.77
2023-03-28T03:53:46.818Z,0.43
2023-03-28T03:56:17.778Z,1.08
2023-03-28T03:58:57.572Z,0.50
2023-03-28T04:01:30.284Z,0.80
2023-03-28T04:04:07.883Z,1.90
2023-03-28T04:06:58.161Z,2.40
2023-03-28T04:09:27.365Z,1.38
2023-03-28T04:12:00.991Z,1.05
2023-03-28T04:14:28.750Z,1.35
2023-03-28T04:17:16.312Z,1.92
2023-03-28T04:19:46.698Z,1.35
2023-03-28T04:22:14.370Z,1.67
2023-03-28T04:24:50.078Z,3.35
2023-03-28T04:27:31.530Z,1.58
2023-03-28T04:30:00.733Z,2.20
2023-03-28T04:32:54.410Z,2.17
2023-03-28T04:35:29.811Z,3.15
2023-03-28T04:38:00.144Z,4.38
2023-03-28T04:40:28.290Z,2.75
2023-03-28T04:43:18.724Z,4.57
2023-03-28T04:45:56.490Z,1.92
2023-03-28T04:48:25.828Z,2.53
2023-03-28T04:50:54.297Z,1.90
2023-03-28T04:53:22.538Z,2.05
2023-03-28T04:56:28.128Z,2.67
2023-03-28T04:58:56.495Z,1.80
2023-03-28T05:01:27.819Z,2.90
2023-03-28T05:04:13.648Z,2.55
2023-03-28T05:06:41.334Z,2.35
2023-03-28T05:09:14.440Z,2.33
2023-03-28T05:11:42.727Z,3.13
2023-03-28T05:14:10.882Z,2.83
2023-03-28T05:16:44.642Z,3.78
2023-03-28T05:19:44.097Z,3.17
2023-03-28T05:22:20.795Z,2.53
2023-03-28T05:24:49.633Z,2.45
2023-03-28T05:27:19.219Z,3.00
2023-03-28T05:29:47.481Z,3.35
2023-03-28T05:32:15.143Z,2.80
2023-03-28T05:34:42.555Z,1.15
2023-03-28T05:37:10.562Z,3.53
2023-03-28T05:39:48.731Z,2.35
2023-03-28T05:42:17.160Z,3.33
2023-03-28T05:44:44.488Z,2.20
2023-03-28T05:47:21.058Z,2.60
2023-03-28T05:49:48.491Z,2.53
2023-03-28T05:52:16.291Z,3.10
2023-03-28T05:54:52.124Z,4.47
2023-03-28T05:57:22.731Z,3.38
2023-03-28T05:59:50.096Z,4.75
2023-03-28T06:02:23.659Z,2.30
2023-03-28T06:04:57.965Z,2.20
2023-03-28T06:07:39.282Z,3.63
2023-03-28T06:10:12.447Z,2.30
2023-03-28T06:12:41.304Z,3.90
2023-03-28T06:15:10.043Z,3.22
2023-03-28T06:17:42.772Z,1.73
2023-03-28T06:20:10.506Z,4.28
2023-03-28T06:22:38.494Z,3.55
2023-03-28T06:25:11.224Z,2.63
2023-03-28T06:27:38.847Z,1.73
2023-03-28T06:30:07.225Z,2.55
2023-03-28T06:32:43.055Z,2.60
2023-03-28T06:35:10.818Z,2.20
2023-03-28T06:37:38.367Z,2.63
2023-03-28T06:40:09.138Z,1.83
2023-03-28T06:42:36.847Z,3.00
2023-03-28T06:45:33.519Z,1.70
2023-03-28T06:48:04.845Z,2.38
2023-03-28T06:50:59.185Z,3.60
2023-03-28T06:53:27.869Z,4.20
2023-03-28T06:55:55.726Z,5.93
2023-03-28T06:58:24.056Z,2.10
2023-03-28T07:01:02.458Z,3.85
2023-03-28T07:03:42.360Z,3.45
2023-03-28T07:06:10.748Z,3.58
2023-03-28T07:08:38.869Z,2.45
2023-03-28T07:11:06.864Z,2.28
2023-03-28T07:13:34.660Z,4.93
2023-03-28T07:16:12.498Z,3.53
2023-03-28T07:18:41.752Z,2.65
2023-03-28T07:21:17.015Z,2.30
2023-03-28T07:23:44.930Z,2.88
2023-03-28T07:26:15.694Z,2.88
2023-03-28T07:28:43.424Z,4.47
2023-03-28T07:31:11.325Z,3.40
2023-03-28T07:33:39.374Z,3.67
2023-03-28T07:38:47.262Z,2.25
2023-03-28T07:41:16.586Z,1.63
2023-03-28T07:43:44.818Z,3.05
2023-03-28T07:46:15.111Z,2.28
2023-03-28T07:48:44.013Z,2.55
2023-03-28T07:51:11.600Z,3.92
2023-03-28T07:53:39.826Z,3.53
2023-03-28T07:56:12.303Z,1.65
2023-03-28T07:58:58.948Z,2.30
2023-03-28T08:01:26.508Z,2.70
2023-03-28T08:04:01.422Z,1.90
2023-03-28T08:06:40.708Z,2.78
2023-03-28T08:09:10.647Z,1.75
2023-03-28T08:11:42.030Z,5.47
2023-03-28T08:14:15.546Z,2.55
2023-03-28T08:16:44.401Z,2.92
2023-03-28T08:19:12.593Z,2.20
2023-03-28T08:22:16.757Z,1.15
2023-03-28T08:24:53.756Z,2.63
2023-03-28T08:27:23.472Z,1.90
2023-03-28T08:29:54.707Z,4.85
2023-03-28T08:32:22.090Z,5.22
2023-03-28T08:34:49.709Z,3.45
2023-03-28T08:37:22.916Z,2.70
2023-03-28T08:39:50.937Z,3.63
2023-03-28T08:42:28.638Z,1.92
2023-03-28T08:45:37.005Z,2.55
2023-03-28T08:48:07.252Z,6.15
2023-03-28T08:50:41.683Z,4.55
2023-03-28T08:53:24.716Z,1.75
2023-03-28T08:55:53.774Z,1.10
2023-03-28T08:58:23.564Z,3.33
2023-03-28T09:00:52.361Z,2.78
2023-03-28T09:03:22.484Z,2.53
2023-03-28T09:06:18.082Z,1.92
2023-03-28T09:09:13.184Z,1.70
2023-03-28T09:12:16.900Z,2.17
2023-03-28T09:14:51.978Z,1.50
2023-03-28T09:17:54.098Z,2.97
2023-03-28T09:21:12.604Z,1.90
2023-03-28T09:23:58.129Z,3.00
2023-03-28T09:27:20.677Z,3.27
2023-03-28T09:29:50.530Z,1.20
2023-03-28T09:32:26.506Z,2.97
2023-03-28T09:34:54.163Z,2.63
2023-03-28T09:37:38.191Z,2.70
2023-03-28T09:40:17.842Z,1.30
2023-03-28T09:43:14.311Z,1.90
2023-03-28T09:46:02.785Z,3.25
2023-03-28T09:48:50.699Z,0.75
2023-03-28T09:51:21.451Z,1.50
2023-03-28T09:53:48.811Z,1.70
2023-03-28T09:56:28.011Z,3.25
2023-03-28T09:59:03.529Z,3.60
2023-03-28T10:01:47.016Z,3.45
2023-03-28T10:04:19.759Z,4.35
2023-03-28T10:07:13.237Z,3.40
2023-03-28T10:09:55.221Z,3.60
2023-03-28T10:12:32.428Z,2.55
2023-03-28T10:15:00.665Z,3.25
2023-03-28T10:17:46.780Z,2.00
2023-03-28T10:20:21.689Z,2.20
2023-03-28T10:22:56.123Z,2.85
2023-03-28T10:25:45.462Z,1.50
2023-03-28T10:28:33.973Z,0.88
2023-03-28T10:31:03.365Z,2.95
2023-03-28T10:33:46.395Z,1.73
2023-03-28T10:36:34.424Z,2.78
2023-03-28T10:39:27.645Z,2.90
2023-03-28T10:42:13.658Z,1.50
2023-03-28T10:45:04.828Z,4.43
2023-03-28T10:47:36.297Z,0.45
2023-03-28T10:50:19.907Z,1.10
2023-03-28T10:53:20.135Z,2.53
2023-03-28T10:56:06.817Z,2.45
2023-03-28T10:59:00.346Z,1.63
2023-03-28T11:02:13.959Z,0.40
2023-03-28T11:05:28.785Z,1.23
2023-03-28T11:08:19.415Z,1.13
2023-03-28T11:11:01.011Z,3.05
2023-03-28T11:13:55.741Z,1.70
2023-03-28T11:16:51.751Z,1.65
2023-03-28T11:20:22.839Z,1.25
2023-03-28T11:23:31.451Z,1.48
2023-03-28T11:27:08.580Z,1.38
2023-03-28T11:30:00.967Z,4.13
2023-03-28T11:32:39.864Z,2.92
2023-03-28T11:35:28.630Z,3.05
2023-03-28T11:38:11.605Z,2.80
2023-03-28T11:40:51.620Z,1.50
2023-03-28T11:43:50.064Z,3.30
2023-03-28T11:46:39.154Z,2.90
2023-03-28T11:49:26.139Z,1.75
2023-03-28T11:52:07.687Z,2.65
2023-03-28T11:54:42.894Z,2.70
2023-03-28T11:57:10.307Z,2.92
2023-03-28T12:00:26.728Z,2.03
2023-03-28T12:03:16.392Z,4.53
2023-03-28T12:06:05.005Z,1.02
2023-03-28T12:08:47.712Z,2.00
2023-03-28T12:11:23.928Z,3.17
2023-03-28T12:14:28.568Z,2.80
2023-03-28T12:17:11.120Z,4.03
2023-03-28T12:19:41.321Z,2.60
2023-03-28T12:22:41.126Z,3.47
2023-03-28T12:25:10.686Z,3.58
2023-03-28T12:30:58.915Z,1.83
2023-03-28T12:33:48.680Z,2.15
2023-03-28T12:37:04.594Z,0.90
2023-03-28T12:39:35.556Z,3.22
2023-03-28T12:42:13.004Z,2.85
2023-03-28T12:45:03.786Z,3.83
2023-03-28T12:47:47.262Z,2.50
2023-03-28T12:50:31.824Z,3.10
2023-03-28T12:53:00.716Z,2.13
2023-03-28T12:55:35.690Z,1.48
2023-03-28T12:58:36.406Z,0.90
2023-03-28T13:01:49.138Z,1.83
2023-03-28T13:04:36.014Z,1.90
2023-03-28T13:07:18.233Z,4.20
2023-03-28T13:09:49.931Z,3.40
2023-03-28T13:12:24.461Z,2.25
2023-03-28T13:15:21.403Z,2.10
2023-03-28T13:18:17.595Z,1.83
2023-03-28T13:20:47.130Z,2.28
2023-03-28T13:23:17.851Z,2.97
2023-03-28T13:25:55.870Z,1.38
2023-03-28T13:28:53.050Z,3.47
2023-03-28T13:31:25.043Z,1.80
2023-03-28T13:34:01.960Z,1.17
2023-03-28T13:36:32.933Z,1.77
2023-03-28T13:39:25.999Z,2.55
2023-03-28T13:41:56.061Z,3.40
2023-03-28T13:44:40.093Z,3.25
2023-03-28T13:47:14.232Z,2.33
2023-03-28T13:49:48.049Z,7.97
2023-03-28T13:52:20.652Z,1.70
2023-03-28T13:54:54.359Z,2.50
2023-03-28T13:57:26.442Z,2.45
2023-03-28T14:00:07.983Z,1.25
2023-03-28T14:02:50.187Z,1.52
2023-03-28T14:05:29.756Z,2.03
2023-03-28T14:08:15.809Z,1.77
2023-03-28T14:10:45.925Z,1.52
2023-03-28T14:13:22.741Z,0.80
2023-03-28T14:15:52.329Z,3.70
2023-03-28T14:18:46.207Z,0.75
2023-03-28T14:21:14.664Z,2.20
2023-03-28T14:24:25.085Z,0.98
2023-03-28T14:27:06.539Z,0.85
2023-03-28T14:29:33.716Z,1.85
2023-03-28T14:32:02.024Z,0.50
2023-03-28T14:34:38.886Z,1.90
2023-03-28T14:37:15.812Z,2.38
2023-03-28T14:39:43.712Z,1.42
2023-03-28T14:42:20.223Z,0.68
2023-03-28T14:44:52.294Z,1.70
2023-03-28T14:47:30.101Z,3.13
2023-03-28T14:49:58.292Z,0.90
2023-03-28T14:52:30.858Z,1.17
2023-03-28T14:54:59.053Z,1.42
2023-03-28T14:57:27.015Z,2.30
2023-03-28T14:59:57.065Z,1.05
2023-03-28T15:02:35.917Z,2.45
2023-03-28T15:05:08.100Z,0.90
2023-03-28T15:07:37.366Z,4.78
2023-03-28T15:10:21.059Z,1.10
2023-03-28T15:13:03.915Z,1.02
2023-03-28T15:15:42.192Z,3.65
2023-03-28T15:18:19.445Z,1.45
2023-03-28T15:20:52.111Z,3.85
2023-03-28T15:23:29.219Z,0.90
2023-03-28T15:26:01.252Z,1.85
2023-03-28T15:28:30.790Z,3.20
2023-03-28T15:31:00.963Z,0.35
2023-03-28T15:33:33.841Z,2.03
2023-03-28T15:36:13.135Z,1.85
2023-03-28T15:38:41.354Z,1.08
2023-03-28T15:41:24.396Z,3.42
2023-03-28T15:43:54.665Z,0.40
2023-03-28T15:46:29.255Z,1.65
2023-03-28T15:48:59.494Z,1.05
2023-03-28T15:51:28.299Z,2.25
2023-03-28T15:53:58.883Z,1.10
2023-03-28T15:56:29.447Z,1.25
2023-03-28T15:59:02.873Z,0.75
2023-03-28T16:01:32.550Z,2.05
2023-03-28T16:04:20.721Z,2.97
2023-03-28T16:06:48.823Z,3.70
2023-03-28T16:09:21.637Z,0.85
2023-03-28T16:12:03.628Z,1.38
2023-03-28T16:14:52.973Z,1.52
2023-03-28T16:17:30.601Z,1.02
2023-03-28T16:20:22.131Z,2.92
2023-03-28T16:22:50.799Z,1.33
2023-03-28T16:25:18.385Z,1.58
2023-03-28T16:27:45.920Z,2.40
2023-03-28T16:30:21.639Z,1.35
2023-03-28T16:32:48.956Z,2.50
2023-03-28T16:35:16.613Z,1.45
2023-03-28T16:37:43.859Z,2.85
2023-03-28T16:40:11.787Z,2.53
2023-03-28T16:42:39.108Z,3.17
2023-03-28T16:45:11.423Z,1.65
2023-03-28T16:47:39.033Z,2.47
2023-03-28T16:50:08.839Z,2.70
2023-03-28T16:52:40.292Z,3.58
2023-03-28T16:55:14.728Z,4.63
2023-03-28T16:57:43.558Z,2.45
2023-03-28T17:00:18.182Z,3.92
2023-03-28T17:02:47.603Z,2.70
2023-03-28T17:05:16.809Z,1.75
2023-03-28T17:07:44.436Z,2.05
2023-03-28T17:10:12.578Z,2.67
2023-03-28T17:12:40.005Z,2.17
2023-03-28T17:15:09.603Z,3.83
2023-03-28T17:17:37.011Z,3.20
2023-03-28T17:20:05.286Z,2.75
2023-03-28T17:22:32.655Z,3.17
2023-03-28T17:25:02.041Z,3.63
2023-03-28T17:27:29.660Z,4.65
2023-03-28T17:29:57.542Z,2.63
2023-03-28T17:32:25.035Z,2.60
2023-03-28T17:34:52.666Z,4.40
2023-03-28T17:37:22.449Z,3.50
2023-03-28T17:39:51.092Z,4.57
2023-03-28T17:42:18.363Z,4.20
2023-03-28T17:44:45.986Z,2.63
2023-03-28T17:47:13.441Z,2.72
2023-03-28T17:49:41.133Z,3.85
2023-03-28T17:52:10.394Z,4.30
2023-03-28T17:54:38.042Z,6.57
2023-03-28T17:57:06.905Z,4.68
2023-03-28T17:59:34.494Z,5.30
2023-03-28T18:02:03.001Z,3.83
2023-03-28T18:04:30.851Z,4.63
2023-03-28T18:07:16.487Z,3.03
2023-03-28T18:09:45.934Z,5.05
2023-03-28T18:12:13.724Z,4.57
2023-03-28T18:14:41.647Z,5.68
2023-03-28T18:17:09.574Z,6.88
2023-03-28T18:19:37.216Z,5.10
2023-03-28T18:22:04.443Z,5.82
2023-03-28T18:24:31.986Z,4.57
2023-03-28T18:27:00.118Z,4.20
2023-03-28T18:29:27.703Z,5.38
2023-03-28T18:31:55.068Z,4.15
2023-03-28T18:34:22.770Z,4.53
2023-03-28T18:36:51.387Z,3.85
2023-03-28T18:39:19.063Z,6.30
2023-03-28T18:41:46.294Z,5.93
2023-03-28T18:44:13.867Z,5.38
2023-03-28T18:46:41.153Z,4.88
2023-03-28T18:49:09.062Z,4.30
2023-03-28T18:51:36.719Z,6.32
2023-03-28T18:54:04.401Z,5.70
2023-03-28T18:56:32.937Z,4.75
2023-03-28T18:59:02.337Z,5.68
2023-03-28T19:01:29.986Z,4.05
2023-03-28T19:03:57.636Z,4.57
2023-03-28T19:06:24.996Z,6.03
2023-03-28T19:08:52.784Z,4.30
2023-03-28T19:11:20.109Z,4.30
2023-03-28T19:13:48.068Z,4.63
2023-03-28T19:16:17.122Z,6.20
2023-03-28T19:18:46.873Z,4.93
2023-03-28T19:21:15.244Z,7.53
2023-03-28T19:23:43.188Z,6.57
2023-03-28T19:26:13.169Z,8.63
2023-03-28T19:28:41.919Z,8.27
2023-03-28T19:31:11.473Z,7.07
2023-03-28T19:33:42.585Z,6.85
2023-03-28T19:36:11.593Z,6.55
2023-03-28T19:38:40.334Z,7.30
2023-03-28T19:41:15.813Z,8.25
2023-03-28T19:43:44.267Z,6.80
2023-03-28T19:46:26.320Z,9.27
2023-03-28T19:49:00.972Z,11.90
2023-03-28T19:51:28.729Z,9.57
2023-03-28T19:53:56.322Z,12.77
2023-03-28T19:56:23.605Z,7.78
2023-03-28T19:58:52.193Z,7.90
2023-03-28T20:01:20.578Z,10.77
2023-03-28T20:03:52.599Z,7.95
2023-03-28T20:06:21.586Z,9.38
2023-03-28T20:08:49.620Z,9.02
2023-03-28T20:11:17.301Z,10.07
2023-03-28T20:13:45.055Z,10.07
2023-03-28T20:16:13.608Z,12.82
2023-03-28T20:18:41.938Z,10.30
2023-03-28T20:21:11.941Z,8.55
2023-03-28T20:23:40.107Z,10.75
2023-03-28T20:26:19.237Z,9.70
2023-03-28T20:28:49.997Z,11.43
2023-03-28T20:31:18.619Z,9.98
2023-03-28T20:33:46.357Z,11.45
2023-03-28T20:36:13.666Z,9.27
2023-03-28T20:38:41.256Z,11.85
2023-03-28T20:41:16.168Z,10.27
2023-03-28T20:43:47.312Z,7.05
2023-03-28T20:46:19.669Z,7.90
2023-03-28T20:48:53.033Z,8.00
2023-03-28T20:51:22.558Z,7.60
2023-03-28T20:53:54.488Z,8.07
2023-03-28T20:56:23.597Z,8.97
2023-03-28T20:58:53.358Z,6.30
2023-03-28T21:01:26.235Z,9.88
2023-03-28T21:03:57.998Z,10.23
2023-03-28T21:06:29.443Z,6.40
2023-03-28T21:09:01.917Z,8.38
2023-03-28T21:11:31.845Z,5.80
2023-03-28T21:14:00.443Z,9.70
2023-03-28T21:16:29.184Z,7.18
2023-03-28T21:18:56.944Z,7.40
2023-03-28T21:21:24.337Z,6.95
2023-03-28T21:23:53.307Z,6.53
2023-03-28T21:26:22.925Z,4.40
2023-03-28T21:28:54.780Z,4.95
2023-03-28T21:31:28.185Z,7.10
2023-03-28T21:33:58.787Z,5.15
2023-03-28T21:36:27.257Z,6.93
2023-03-28T21:38:56.306Z,7.18
2023-03-28T21:41:24.019Z,7.35
2023-03-28T21:43:53.784Z,9.18
2023-03-28T21:46:21.855Z,8.38
2023-03-28T21:48:50.127Z,7.30
2023-03-28T21:51:18.317Z,7.20
2023-03-28T21:53:46.334Z,6.88
2023-03-28T21:56:14.854Z,6.03
2023-03-28T21:58:42.540Z,6.35
2023-03-28T22:01:13.789Z,3.95
2023-03-28T22:03:41.844Z,4.40
2023-03-28T22:06:09.808Z,5.78
2023-03-28T22:08:37.489Z,4.45
2023-03-28T22:11:14.953Z,4.97
2023-03-28T22:13:45.109Z,7.55
2023-03-28T22:16:13.035Z,4.28
2023-03-28T22:18:41.738Z,6.85
2023-03-28T22:21:14.071Z,2.55
2023-03-28T22:23:43.505Z,3.50
2023-03-28T22:26:12.640Z,3.75
2023-03-28T22:28:40.241Z,6.93
2023-03-28T22:31:07.655Z,3.95
2023-03-28T22:33:35.305Z,5.95
2023-03-28T22:36:03.553Z,3.50
2023-03-28T22:38:31.208Z,5.45
2023-03-28T22:40:58.578Z,6.90
2023-03-28T22:43:26.750Z,3.55
2023-03-28T22:45:54.006Z,4.53
2023-03-28T22:48:22.045Z,5.35
2023-03-28T22:50:50.356Z,4.80
2023-03-28T22:53:18.290Z,4.63
2023-03-28T22:55:45.556Z,9.23
2023-03-28T22:58:13.093Z,6.18
2023-03-28T23:00:40.539Z,5.85
2023-03-28T23:03:08.972Z,6.90
2023-03-28T23:05:37.293Z,6.20
2023-03-28T23:08:05.617Z,5.03
2023-03-28T23:10:34.089Z,4.10
2023-03-28T23:13:01.620Z,4.55
2023-03-28T23:15:28.928Z,6.40
2023-03-28T23:17:56.622Z,4.55
2023-03-28T23:20:24.735Z,4.57
2023-03-28T23:22:53.680Z,5.55
2023-03-28T23:25:22.238Z,6.25
2023-03-28T23:27:49.918Z,4.53
2023-03-28T23:30:17.261Z,7.18
2023-03-28T23:32:44.913Z,4.20
2023-03-28T23:35:12.344Z,5.05
2023-03-28T23:37:40.343Z,9.23
2023-03-28T23:40:15.095Z,3.92
2023-03-28T23:42:44.757Z,5.75
2023-03-28T23:45:14.978Z,9.50
2023-03-28T23:47:44.290Z,5.38
2023-03-28T23:50:12.306Z,5.03
2023-03-28T23:52:40.161Z,5.40
2023-03-28T23:55:08.865Z,4.05
2023-03-28T23:57:37.319Z,5.20
